sensor_id;sensor_type;location;lat;lon;timestamp;pressure;altitude;pressure_sealevel;temperature;humidity
72157;BME280;60035;52.122;5.406;2023-03-23T00:01:29;100379.47;;;11.02;100.00
72157;BME280;60035;52.122;5.406;2023-03-23T00:04:03;100380.22;;;11.04;100.00
72157;BME280;60035;52.122;5.406;2023-03-23T00:06:28;100380.22;;;11.04;100.00
72157;BME280;60035;52.122;5.406;2023-03-23T00:08:59;100353.78;;;11.04;100.00
72157;BME280;60035;52.122;5.406;2023-03-23T00:11:28;100335.91;;;11.02;100.00
72157;BME280;60035;52.122;5.406;2023-03-23T00:13:56;100328.16;;;11.04;100.00
72157;BME280;60035;52.122;5.406;2023-03-23T00:16:25;100332.50;;;11.02;100.00
72157;BME280;60035;52.122;5.406;2023-03-23T00:19:15;100354.75;;;11.01;100.00
72157;BME280;60035;52.122;5.406;2023-03-23T00:21:41;100359.88;;;11.01;100.00
72157;BME280;60035;52.122;5.406;2023-03-23T00:24:13;100347.88;;;11.02;100.00
72157;BME280;60035;52.122;5.406;2023-03-23T00:26:42;100352.94;;;11.03;100.00
72157;BME280;60035;52.122;5.406;2023-03-23T00:29:20;100346.09;;;11.04;100.00
72157;BME280;60035;52.122;5.406;2023-03-23T00:31:47;100353.66;;;11.07;100.00
72157;BME280;60035;52.122;5.406;2023-03-23T00:34:21;100345.91;;;11.08;100.00
72157;BME280;60035;52.122;5.406;2023-03-23T00:36:48;100335.66;;;11.08;100.00
72157;BME280;60035;52.122;5.406;2023-03-23T00:39:14;100339.91;;;11.09;100.00
72157;BME280;60035;52.122;5.406;2023-03-23T00:41:42;100346.56;;;11.13;100.00
72157;BME280;60035;52.122;5.406;2023-03-23T00:44:08;100331.19;;;11.13;100.00
72157;BME280;60035;52.122;5.406;2023-03-23T00:46:34;100334.63;;;11.12;100.00
72157;BME280;60035;52.122;5.406;2023-03-23T00:48:59;100329.50;;;11.12;100.00
72157;BME280;60035;52.122;5.406;2023-03-23T00:51:25;100329.41;;;11.15;100.00
72157;BME280;60035;52.122;5.406;2023-03-23T00:53:51;100319.97;;;11.16;100.00
72157;BME280;60035;52.122;5.406;2023-03-23T00:56:16;100314.84;;;11.16;100.00
72157;BME280;60035;52.122;5.406;2023-03-23T00:58:42;100308.91;;;11.15;100.00
72157;BME280;60035;52.122;5.406;2023-03-23T01:01:08;100301.28;;;11.14;100.00
72157;BME280;60035;52.122;5.406;2023-03-23T01:03:34;100305.56;;;11.13;100.00
72157;BME280;60035;52.122;5.406;2023-03-23T01:06:08;100304.66;;;11.14;100.00
72157;BME280;60035;52.122;5.406;2023-03-23T01:08:39;100296.91;;;11.16;100.00
72157;BME280;60035;52.122;5.406;2023-03-23T01:11:14;100298.44;;;11.20;100.00
72157;BME280;60035;52.122;5.406;2023-03-23T01:13:43;100301.09;;;11.19;100.00
72157;BME280;60035;52.122;5.406;2023-03-23T01:16:10;100287.50;;;11.16;100.00
72157;BME280;60035;52.122;5.406;2023-03-23T01:18:37;100302.03;;;11.16;100.00
72157;BME280;60035;52.122;5.406;2023-03-23T01:21:14;100301.09;;;11.19;100.00
72157;BME280;60035;52.122;5.406;2023-03-23T01:23:42;100293.25;;;11.22;100.00
72157;BME280;60035;52.122;5.406;2023-03-23T01:26:13;100283.78;;;11.24;100.00
72157;BME280;60035;52.122;5.406;2023-03-23T01:28:39;100265.94;;;11.22;100.00
72157;BME280;60035;52.122;5.406;2023-03-23T01:31:08;100265.94;;;11.22;100.00
72157;BME280;60035;52.122;5.406;2023-03-23T01:33:34;100282.13;;;11.23;100.00
72157;BME280;60035;52.122;5.406;2023-03-23T01:36:08;100270.97;;;11.24;100.00
72157;BME280;60035;52.122;5.406;2023-03-23T01:38:35;100269.16;;;11.26;100.00
72157;BME280;60035;52.122;5.406;2023-03-23T01:41:01;100271.72;;;11.26;100.00
72157;BME280;60035;52.122;5.406;2023-03-23T01:43:27;100265.78;;;11.25;100.00
72157;BME280;60035;52.122;5.406;2023-03-23T01:45:52;100265.72;;;11.27;100.00
72157;BME280;60035;52.122;5.406;2023-03-23T01:48:19;100257.97;;;11.28;100.00
72157;BME280;60035;52.122;5.406;2023-03-23T01:50:50;100269.13;;;11.27;100.00
72157;BME280;60035;52.122;5.406;2023-03-23T01:53:18;100254.66;;;11.26;100.00
72157;BME280;60035;52.122;5.406;2023-03-23T01:55:44;100259.69;;;11.28;100.00
72157;BME280;60035;52.122;5.406;2023-03-23T01:58:13;100257.97;;;11.28;100.00
72157;BME280;60035;52.122;5.406;2023-03-23T02:00:40;100256.19;;;11.30;100.00
72157;BME280;60035;52.122;5.406;2023-03-23T02:03:08;100245.03;;;11.31;100.00
72157;BME280;60035;52.122;5.406;2023-03-23T02:05:39;100244.19;;;11.31;100.00
72157;BME280;60035;52.122;5.406;2023-03-23T02:08:06;100254.44;;;11.31;100.00
72157;BME280;60035;52.122;5.406;2023-03-23T02:10:35;100252.84;;;11.28;100.00
72157;BME280;60035;52.122;5.406;2023-03-23T02:13:02;100247.72;;;11.28;100.00
72157;BME280;60035;52.122;5.406;2023-03-23T02:18:20;100246.09;;;11.26;100.00
72157;BME280;60035;52.122;5.406;2023-03-23T02:21:10;100259.78;;;11.26;100.00
72157;BME280;60035;52.122;5.406;2023-03-23T02:26:58;100243.44;;;11.29;100.00
72157;BME280;60035;52.122;5.406;2023-03-23T02:34:58;100252.78;;;11.30;100.00
72157;BME280;60035;52.122;5.406;2023-03-23T02:37:31;100249.38;;;11.29;100.00
72157;BME280;60035;52.122;5.406;2023-03-23T02:40:25;100245.84;;;11.32;100.00
72157;BME280;60035;52.122;5.406;2023-03-23T02:42:54;100244.16;;;11.32;100.00
72157;BME280;60035;52.122;5.406;2023-03-23T02:45:22;100243.03;;;11.38;100.00
72157;BME280;60035;52.122;5.406;2023-03-23T02:47:52;100249.84;;;11.39;100.00
72157;BME280;60035;52.122;5.406;2023-03-23T02:50:20;100236.94;;;11.41;100.00
72157;BME280;60035;52.122;5.406;2023-03-23T02:52:48;100241.13;;;11.43;100.00
72157;BME280;60035;52.122;5.406;2023-03-23T02:55:16;100240.16;;;11.46;100.00
72157;BME280;60035;52.122;5.406;2023-03-23T02:57:42;100237.59;;;11.46;100.00
72157;BME280;60035;52.122;5.406;2023-03-23T03:00:12;100240.97;;;11.46;100.00
72157;BME280;60035;52.122;5.406;2023-03-23T03:02:42;100234.88;;;11.49;100.00
72157;BME280;60035;52.122;5.406;2023-03-23T03:05:38;100228.78;;;11.52;100.00
72157;BME280;60035;52.122;5.406;2023-03-23T03:10:53;100235.59;;;11.53;100.00
72157;BME280;60035;52.122;5.406;2023-03-23T03:15:59;100241.53;;;11.53;100.00
72157;BME280;60035;52.122;5.406;2023-03-23T03:21:03;100233.72;;;11.56;100.00
72157;BME280;60035;52.122;5.406;2023-03-23T03:23:31;100236.28;;;11.56;100.00
72157;BME280;60035;52.122;5.406;2023-03-23T03:25:59;100222.44;;;11.60;100.00
72157;BME280;60035;52.122;5.406;2023-03-23T03:28:26;100226.66;;;11.61;100.00
72157;BME280;60035;52.122;5.406;2023-03-23T03:30:57;100232.69;;;11.60;100.00
72157;BME280;60035;52.122;5.406;2023-03-23T03:33:27;100226.66;;;11.61;100.00
72157;BME280;60035;52.122;5.406;2023-03-23T03:35:58;100231.75;;;11.63;100.00
72157;BME280;60035;52.122;5.406;2023-03-23T03:38:25;100217.16;;;11.63;100.00
72157;BME280;60035;52.122;5.406;2023-03-23T03:40:51;100221.41;;;11.64;100.00
72157;BME280;60035;52.122;5.406;2023-03-23T03:43:17;100223.13;;;11.64;100.00
72157;BME280;60035;52.122;5.406;2023-03-23T03:45:42;100217.88;;;11.67;100.00
72157;BME280;60035;52.122;5.406;2023-03-23T03:48:08;100211.72;;;11.71;100.00
72157;BME280;60035;52.122;5.406;2023-03-23T03:50:33;100209.16;;;11.71;100.00
72157;BME280;60035;52.122;5.406;2023-03-23T03:52:59;100222.03;;;11.70;100.00
72157;BME280;60035;52.122;5.406;2023-03-23T03:55:24;100221.97;;;11.71;100.00
72157;BME280;60035;52.122;5.406;2023-03-23T03:57:50;100230.56;;;11.70;100.00
72157;BME280;60035;52.122;5.406;2023-03-23T04:00:16;100207.41;;;11.72;100.00
72157;BME280;60035;52.122;5.406;2023-03-23T04:02:43;100218.50;;;11.72;100.00
72157;BME280;60035;52.122;5.406;2023-03-23T04:05:09;100215.94;;;11.72;100.00
72157;BME280;60035;52.122;5.406;2023-03-23T04:07:36;100202.19;;;11.73;100.00
72157;BME280;60035;52.122;5.406;2023-03-23T04:10:07;100212.44;;;11.73;100.00
72157;BME280;60035;52.122;5.406;2023-03-23T04:12:34;100215.94;;;11.72;100.00
72157;BME280;60035;52.122;5.406;2023-03-23T04:15:00;100221.13;;;11.71;100.00
72157;BME280;60035;52.122;5.406;2023-03-23T04:17:25;100221.06;;;11.72;100.00
72157;BME280;60035;52.122;5.406;2023-03-23T04:19:52;100220.94;;;11.75;100.00
72157;BME280;60035;52.122;5.406;2023-03-23T04:22:17;100226.88;;;11.76;100.00
72157;BME280;60035;52.122;5.406;2023-03-23T04:24:43;100217.41;;;11.78;100.00
72157;BME280;60035;52.122;5.406;2023-03-23T04:27:08;100229.25;;;11.80;100.00
72157;BME280;60035;52.122;5.406;2023-03-23T04:29:34;100231.53;;;11.87;100.00
72157;BME280;60035;52.122;5.406;2023-03-23T04:31:59;100220.38;;;11.88;100.00
72157;BME280;60035;52.122;5.406;2023-03-23T04:34:27;100240.00;;;11.89;100.00
72157;BME280;60035;52.122;5.406;2023-03-23T04:36:52;100227.16;;;11.89;100.00
72157;BME280;60035;52.122;5.406;2023-03-23T04:39:18;100237.44;;;11.89;100.00
72157;BME280;60035;52.122;5.406;2023-03-23T04:41:44;100235.75;;;11.88;100.00
72157;BME280;60035;52.122;5.406;2023-03-23T04:44:12;100243.47;;;11.88;100.00
72157;BME280;60035;52.122;5.406;2023-03-23T04:46:43;100264.84;;;11.88;100.00
72157;BME280;60035;52.122;5.406;2023-03-23T04:49:10;100253.88;;;11.84;100.00
72157;BME280;60035;52.122;5.406;2023-03-23T04:51:35;100255.66;;;11.82;100.00
72157;BME280;60035;52.122;5.406;2023-03-23T04:54:01;100257.31;;;11.83;99.74
72157;BME280;60035;52.122;5.406;2023-03-23T04:56:27;100257.19;;;11.87;99.26
72157;BME280;60035;52.122;5.406;2023-03-23T04:58:52;100247.84;;;11.86;99.30
72157;BME280;60035;52.122;5.406;2023-03-23T05:01:17;100255.66;;;11.82;99.25
72157;BME280;60035;52.122;5.406;2023-03-23T05:03:44;100263.50;;;11.79;99.41
72157;BME280;60035;52.122;5.406;2023-03-23T05:06:10;100253.09;;;11.82;99.13
72157;BME280;60035;52.122;5.406;2023-03-23T05:08:36;100258.22;;;11.82;99.48
72157;BME280;60035;52.122;5.406;2023-03-23T05:11:04;100265.25;;;11.79;99.58
72157;BME280;60035;52.122;5.406;2023-03-23T05:13:31;100262.72;;;11.77;99.75
72157;BME280;60035;52.122;5.406;2023-03-23T05:15:57;100273.75;;;11.79;99.55
72157;BME280;60035;52.122;5.406;2023-03-23T05:18:23;100274.78;;;11.75;99.83
72157;BME280;60035;52.122;5.406;2023-03-23T05:20:49;100279.13;;;11.73;99.96
72157;BME280;60035;52.122;5.406;2023-03-23T05:23:18;100279.22;;;11.72;100.00
72157;BME280;60035;52.122;5.406;2023-03-23T05:25:55;100267.50;;;11.66;100.00
72157;BME280;60035;52.122;5.406;2023-03-23T05:28:20;100257.56;;;11.58;100.00
72157;BME280;60035;52.122;5.406;2023-03-23T05:30:47;100263.81;;;11.53;100.00
72157;BME280;60035;52.122;5.406;2023-03-23T05:33:13;100269.03;;;11.49;100.00
72157;BME280;60035;52.122;5.406;2023-03-23T05:35:38;100265.72;;;11.47;100.00
72157;BME280;60035;52.122;5.406;2023-03-23T05:38:04;100281.19;;;11.46;100.00
72157;BME280;60035;52.122;5.406;2023-03-23T05:40:30;100293.22;;;11.44;100.00
72157;BME280;60035;52.122;5.406;2023-03-23T05:42:55;100295.84;;;11.42;100.00
72157;BME280;60035;52.122;5.406;2023-03-23T05:45:24;100291.75;;;11.38;100.00
72157;BME280;60035;52.122;5.406;2023-03-23T05:47:50;100293.59;;;11.34;100.00
72157;BME280;60035;52.122;5.406;2023-03-23T05:50:15;100293.09;;;11.26;100.00
72157;BME280;60035;52.122;5.406;2023-03-23T05:52:42;100303.50;;;11.22;100.00
72157;BME280;60035;52.122;5.406;2023-03-23T05:55:08;100302.03;;;11.16;100.00
72157;BME280;60035;52.122;5.406;2023-03-23T05:57:33;100305.69;;;11.10;100.00
72157;BME280;60035;52.122;5.406;2023-03-23T05:59:59;100299.84;;;11.07;100.00
72157;BME280;60035;52.122;5.406;2023-03-23T06:02:25;100307.69;;;11.04;100.00
72157;BME280;60035;52.122;5.406;2023-03-23T06:04:53;100325.59;;;11.04;100.00
72157;BME280;60035;52.122;5.406;2023-03-23T06:07:26;100329.19;;;10.99;100.00
72157;BME280;60035;52.122;5.406;2023-03-23T06:09:52;100311.44;;;10.95;100.00
72157;BME280;60035;52.122;5.406;2023-03-23T06:12:17;100326.06;;;10.91;100.00
72157;BME280;60035;52.122;5.406;2023-03-23T06:14:47;100326.34;;;10.85;100.00
72157;BME280;60035;52.122;5.406;2023-03-23T06:17:14;100325.69;;;10.80;100.00
72157;BME280;60035;52.122;5.406;2023-03-23T06:19:39;100334.38;;;10.76;100.00
72157;BME280;60035;52.122;5.406;2023-03-23T06:22:05;100337.97;;;10.70;100.00
72157;BME280;60035;52.122;5.406;2023-03-23T06:24:31;100343.22;;;10.67;100.00
72157;BME280;60035;52.122;5.406;2023-03-23T06:26:57;100333.13;;;10.64;100.00
72157;BME280;60035;52.122;5.406;2023-03-23T06:29:23;100337.44;;;10.62;100.00
72157;BME280;60035;52.122;5.406;2023-03-23T06:31:52;100358.88;;;10.59;100.00
72157;BME280;60035;52.122;5.406;2023-03-23T06:34:19;100345.31;;;10.57;100.00
72157;BME280;60035;52.122;5.406;2023-03-23T06:36:45;100354.69;;;10.57;100.00
72157;BME280;60035;52.122;5.406;2023-03-23T06:39:10;100358.19;;;10.56;100.00
72157;BME280;60035;52.122;5.406;2023-03-23T06:41:36;100363.28;;;10.56;100.00
72157;BME280;60035;52.122;5.406;2023-03-23T06:44:02;100366.75;;;10.55;100.00
72157;BME280;60035;52.122;5.406;2023-03-23T06:46:27;100370.13;;;10.55;100.00
72157;BME280;60035;52.122;5.406;2023-03-23T06:48:55;100364.06;;;10.58;100.00
72157;BME280;60035;52.122;5.406;2023-03-23T06:51:20;100376.69;;;10.62;100.00
72157;BME280;60035;52.122;5.406;2023-03-23T06:53:46;100370.72;;;10.62;100.00
72157;BME280;60035;52.122;5.406;2023-03-23T06:56:12;100369.84;;;10.63;100.00
72157;BME280;60035;52.122;5.406;2023-03-23T06:58:38;100375.84;;;10.62;100.00
72157;BME280;60035;52.122;5.406;2023-03-23T07:01:05;100380.16;;;10.61;100.00
72157;BME280;60035;52.122;5.406;2023-03-23T07:03:31;100393.78;;;10.62;100.00
72157;BME280;60035;52.122;5.406;2023-03-23T07:05:57;100386.97;;;10.61;100.00
72157;BME280;60035;52.122;5.406;2023-03-23T07:08:24;100380.25;;;10.58;100.00
72157;BME280;60035;52.122;5.406;2023-03-23T07:10:54;100385.38;;;10.58;100.00
72157;BME280;60035;52.122;5.406;2023-03-23T07:13:20;100376.84;;;10.58;100.00
72157;BME280;60035;52.122;5.406;2023-03-23T07:15:46;100373.47;;;10.57;100.00
72157;BME280;60035;52.122;5.406;2023-03-23T07:18:13;100368.34;;;10.57;100.00
72157;BME280;60035;52.122;5.406;2023-03-23T07:20:38;100388.84;;;10.57;100.00
72157;BME280;60035;52.122;5.406;2023-03-23T07:23:04;100400.97;;;10.52;100.00
72157;BME280;60035;52.122;5.406;2023-03-23T07:25:34;100377.19;;;10.48;100.00
72157;BME280;60035;52.122;5.406;2023-03-23T07:28:01;100386.50;;;10.51;100.00
72157;BME280;60035;52.122;5.406;2023-03-23T07:30:28;100381.25;;;10.54;100.00
72157;BME280;60035;52.122;5.406;2023-03-23T07:32:57;100400.63;;;10.61;100.00
72157;BME280;60035;52.122;5.406;2023-03-23T07:35:23;100396.25;;;10.65;100.00
72157;BME280;60035;52.122;5.406;2023-03-23T07:37:49;100414.66;;;10.75;100.00
72157;BME280;60035;52.122;5.406;2023-03-23T07:40:16;100401.63;;;10.81;100.00
72157;BME280;60035;52.122;5.406;2023-03-23T07:42:42;100410.78;;;10.87;100.00
72157;BME280;60035;52.122;5.406;2023-03-23T07:45:10;100412.47;;;10.88;100.00
72157;BME280;60035;52.122;5.406;2023-03-23T07:47:37;100416.56;;;10.92;100.00
72157;BME280;60035;52.122;5.406;2023-03-23T07:50:03;100414.75;;;10.95;100.00
72157;BME280;60035;52.122;5.406;2023-03-23T07:52:29;100413.59;;;11.03;100.00
72157;BME280;60035;52.122;5.406;2023-03-23T07:54:56;100416.03;;;11.06;100.00
72157;BME280;60035;52.122;5.406;2023-03-23T07:57:22;100416.94;;;11.05;100.00
72157;BME280;60035;52.122;5.406;2023-03-23T07:59:47;100422.91;;;11.05;100.00
72157;BME280;60035;52.122;5.406;2023-03-23T08:02:13;100411.75;;;11.06;100.00
72157;BME280;60035;52.122;5.406;2023-03-23T08:04:39;100402.28;;;11.08;100.00
72157;BME280;60035;52.122;5.406;2023-03-23T08:07:04;100413.38;;;11.09;100.00
72157;BME280;60035;52.122;5.406;2023-03-23T08:09:30;100425.28;;;11.10;100.00
72157;BME280;60035;52.122;5.406;2023-03-23T08:11:56;100411.50;;;11.12;100.00
72157;BME280;60035;52.122;5.406;2023-03-23T08:14:23;100435.22;;;11.17;100.00
72157;BME280;60035;52.122;5.406;2023-03-23T08:16:51;100436.91;;;11.19;100.00
72157;BME280;60035;52.122;5.406;2023-03-23T08:19:17;100429.28;;;11.17;100.00
72157;BME280;60035;52.122;5.406;2023-03-23T08:21:42;100432.78;;;11.14;100.00
72157;BME280;60035;52.122;5.406;2023-03-23T08:24:08;100422.41;;;11.17;100.00
72157;BME280;60035;52.122;5.406;2023-03-23T08:26:33;100423.88;;;11.25;100.00
72157;BME280;60035;52.122;5.406;2023-03-23T08:28:59;100422.63;;;11.35;100.00
72157;BME280;60035;52.122;5.406;2023-03-23T08:31:25;100435.88;;;11.45;100.00
72157;BME280;60035;52.122;5.406;2023-03-23T08:33:50;100430.63;;;11.48;100.00
72157;BME280;60035;52.122;5.406;2023-03-23T08:36:17;100430.16;;;11.60;100.00
72157;BME280;60035;52.122;5.406;2023-03-23T08:38:43;100435.50;;;11.76;100.00
72157;BME280;60035;52.122;5.406;2023-03-23T08:41:09;100433.38;;;11.86;100.00
72157;BME280;60035;52.122;5.406;2023-03-23T08:43:35;100435.75;;;11.91;100.00
72157;BME280;60035;52.122;5.406;2023-03-23T08:46:01;100438.66;;;12.04;100.00
72157;BME280;60035;52.122;5.406;2023-03-23T08:48:31;100446.28;;;12.05;100.00
72157;BME280;60035;52.122;5.406;2023-03-23T08:50:58;100447.66;;;11.92;100.00
72157;BME280;60035;52.122;5.406;2023-03-23T08:53:25;100435.88;;;11.88;100.00
72157;BME280;60035;52.122;5.406;2023-03-23T08:55:51;100444.44;;;11.87;100.00
72157;BME280;60035;52.122;5.406;2023-03-23T08:58:16;100448.53;;;11.92;100.00
72157;BME280;60035;52.122;5.406;2023-03-23T09:00:43;100458.78;;;11.92;100.00
72157;BME280;60035;52.122;5.406;2023-03-23T09:03:08;100456.75;;;12.00;100.00
72157;BME280;60035;52.122;5.406;2023-03-23T09:05:34;100459.19;;;12.04;100.00
72157;BME280;60035;52.122;5.406;2023-03-23T09:08:01;100461.50;;;12.10;100.00
72157;BME280;60035;52.122;5.406;2023-03-23T09:10:27;100469.53;;;12.23;100.00
72157;BME280;60035;52.122;5.406;2023-03-23T09:12:55;100461.69;;;12.26;100.00
72157;BME280;60035;52.122;5.406;2023-03-23T09:15:22;100459.53;;;12.36;100.00
72157;BME280;60035;52.122;5.406;2023-03-23T09:17:50;100460.19;;;12.41;100.00
72157;BME280;60035;52.122;5.406;2023-03-23T09:20:19;100456.75;;;12.61;100.00
72157;BME280;60035;52.122;5.406;2023-03-23T09:22:47;100453.22;;;12.63;100.00
72157;BME280;60035;52.122;5.406;2023-03-23T09:25:15;100458.97;;;12.69;100.00
72157;BME280;60035;52.122;5.406;2023-03-23T09:27:44;100463.53;;;12.62;100.00
72157;BME280;60035;52.122;5.406;2023-03-23T09:30:13;100458.69;;;12.56;100.00
72157;BME280;60035;52.122;5.406;2023-03-23T09:32:40;100450.03;;;12.58;100.00
72157;BME280;60035;52.122;5.406;2023-03-23T09:35:09;100471.31;;;12.60;100.00
72157;BME280;60035;52.122;5.406;2023-03-23T09:37:37;100483.75;;;12.50;100.00
72157;BME280;60035;52.122;5.406;2023-03-23T09:40:04;100468.06;;;12.57;100.00
72157;BME280;60035;52.122;5.406;2023-03-23T09:48:49;100484.53;;;12.91;97.13
72157;BME280;60035;52.122;5.406;2023-03-23T09:51:28;100477.59;;;12.74;95.18
72157;BME280;60035;52.122;5.406;2023-03-23T09:56:45;100487.53;;;12.81;94.77
72157;BME280;60035;52.122;5.406;2023-03-23T09:59:29;100483.78;;;12.89;95.30
72157;BME280;60035;52.122;5.406;2023-03-23T10:02:01;100485.78;;;13.01;94.37
72157;BME280;60035;52.122;5.406;2023-03-23T10:07:14;100501.28;;;12.99;93.92
72157;BME280;60035;52.122;5.406;2023-03-23T10:09:43;100510.59;;;13.21;94.20
72157;BME280;60035;52.122;5.406;2023-03-23T10:12:23;100503.66;;;13.23;91.40
72157;BME280;60035;52.122;5.406;2023-03-23T10:17:46;100522.75;;;13.17;89.61
72157;BME280;60035;52.122;5.406;2023-03-23T10:23:05;100519.97;;;12.84;90.92
72157;BME280;60035;52.122;5.406;2023-03-23T10:25:37;100525.94;;;12.85;89.55
72157;BME280;60035;52.122;5.406;2023-03-23T10:28:17;100520.41;;;12.94;91.04
72157;BME280;60035;52.122;5.406;2023-03-23T10:30:48;100519.84;;;13.06;90.89
72157;BME280;60035;52.122;5.406;2023-03-23T10:33:40;100519.13;;;13.03;88.74
72157;BME280;60035;52.122;5.406;2023-03-23T10:36:27;100521.63;;;12.85;88.26
72157;BME280;60035;52.122;5.406;2023-03-23T10:38:57;100530.63;;;12.75;88.98
72157;BME280;60035;52.122;5.406;2023-03-23T10:41:23;100527.31;;;12.73;87.41
72157;BME280;60035;52.122;5.406;2023-03-23T10:43:48;100531.34;;;12.78;87.92
72157;BME280;60035;52.122;5.406;2023-03-23T10:49:06;100526.72;;;12.66;87.00
72157;BME280;60035;52.122;5.406;2023-03-23T10:51:37;100526.03;;;12.62;86.89
72157;BME280;60035;52.122;5.406;2023-03-23T10:54:04;100537.94;;;12.65;86.57
72157;BME280;60035;52.122;5.406;2023-03-23T10:56:37;100524.78;;;12.71;87.67
72157;BME280;60035;52.122;5.406;2023-03-23T10:59:14;100514.56;;;13.09;86.96
72157;BME280;60035;52.122;5.406;2023-03-23T11:01:44;100525.00;;;13.44;85.69
72157;BME280;60035;52.122;5.406;2023-03-23T11:04:15;100531.34;;;13.74;84.21
72157;BME280;60035;52.122;5.406;2023-03-23T11:06:46;100519.28;;;13.74;80.55
72157;BME280;60035;52.122;5.406;2023-03-23T11:09:19;100523.25;;;13.99;82.25
72157;BME280;60035;52.122;5.406;2023-03-23T11:11:55;100535.50;;;14.11;79.79
72157;BME280;60035;52.122;5.406;2023-03-23T11:14:30;100549.53;;;13.88;78.33
72157;BME280;60035;52.122;5.406;2023-03-23T11:16:58;100538.53;;;13.85;79.59
72157;BME280;60035;52.122;5.406;2023-03-23T11:19:28;100532.41;;;13.87;79.12
72157;BME280;60035;52.122;5.406;2023-03-23T11:22:04;100529.53;;;14.28;79.33
72157;BME280;60035;52.122;5.406;2023-03-23T11:24:36;100527.56;;;14.69;74.75
72157;BME280;60035;52.122;5.406;2023-03-23T11:27:06;100527.09;;;14.94;74.02
72157;BME280;60035;52.122;5.406;2023-03-23T11:29:34;100504.38;;;15.32;73.25
72157;BME280;60035;52.122;5.406;2023-03-23T11:34:40;100512.91;;;15.65;72.23
72157;BME280;60035;52.122;5.406;2023-03-23T11:37:32;100513.94;;;15.62;71.27
72157;BME280;60035;52.122;5.406;2023-03-23T11:42:42;100518.00;;;15.82;70.75
72157;BME280;60035;52.122;5.406;2023-03-23T11:45:21;100518.44;;;15.59;70.99
72157;BME280;60035;52.122;5.406;2023-03-23T11:50:52;100515.13;;;15.41;71.83
72157;BME280;60035;52.122;5.406;2023-03-23T11:56:01;100533.03;;;14.78;71.93
72157;BME280;60035;52.122;5.406;2023-03-23T11:58:29;100531.19;;;14.47;76.91
72157;BME280;60035;52.122;5.406;2023-03-23T12:04:09;100536.03;;;13.65;86.12
72157;BME280;60035;52.122;5.406;2023-03-23T12:17:44;100539.06;;;14.44;92.68
72157;BME280;60035;52.122;5.406;2023-03-23T12:28:32;100526.00;;;14.13;88.65
72157;BME280;60035;52.122;5.406;2023-03-23T12:33:54;100522.81;;;13.91;88.32
72157;BME280;60035;52.122;5.406;2023-03-23T12:36:34;100514.75;;;13.79;89.96
72157;BME280;60035;52.122;5.406;2023-03-23T12:39:38;100520.59;;;13.83;89.35
72157;BME280;60035;52.122;5.406;2023-03-23T12:44:52;100520.72;;;13.62;88.88
72157;BME280;60035;52.122;5.406;2023-03-23T12:47:30;100508.91;;;13.76;89.75
72157;BME280;60035;52.122;5.406;2023-03-23T12:50:03;100512.13;;;13.98;88.67
72157;BME280;60035;52.122;5.406;2023-03-23T12:52:39;100503.63;;;14.14;88.08
72157;BME280;60035;52.122;5.406;2023-03-23T12:58:09;100494.47;;;14.77;86.49
72157;BME280;60035;52.122;5.406;2023-03-23T13:05:50;100491.72;;;15.28;76.71
72157;BME280;60035;52.122;5.406;2023-03-23T13:08:23;100480.69;;;15.10;76.33
72157;BME280;60035;52.122;5.406;2023-03-23T13:10:55;100479.84;;;15.09;77.68
72157;BME280;60035;52.122;5.406;2023-03-23T13:13:25;100481.50;;;15.10;75.64
72157;BME280;60035;52.122;5.406;2023-03-23T13:18:27;100506.22;;;15.30;75.90
72157;BME280;60035;52.122;5.406;2023-03-23T13:23:42;100518.19;;;15.15;74.47
72157;BME280;60035;52.122;5.406;2023-03-23T13:26:13;100502.72;;;15.15;72.74
72157;BME280;60035;52.122;5.406;2023-03-23T13:28:55;100504.25;;;15.66;75.59
72157;BME280;60035;52.122;5.406;2023-03-23T13:31:35;100493.19;;;16.25;73.85
72157;BME280;60035;52.122;5.406;2023-03-23T13:34:04;100491.06;;;16.31;70.36
72157;BME280;60035;52.122;5.406;2023-03-23T13:36:43;100504.59;;;16.06;68.05
72157;BME280;60035;52.122;5.406;2023-03-23T13:39:19;100494.75;;;15.82;71.11
72157;BME280;60035;52.122;5.406;2023-03-23T13:42:32;100505.72;;;15.86;72.44
72157;BME280;60035;52.122;5.406;2023-03-23T13:49:59;100515.03;;;16.19;72.12
72157;BME280;60035;52.122;5.406;2023-03-23T14:05:43;100506.38;;;15.27;75.08
72157;BME280;60035;52.122;5.406;2023-03-23T14:10:37;100499.03;;;14.72;77.93
72157;BME280;60035;52.122;5.406;2023-03-23T14:13:05;100511.38;;;14.31;79.97
72157;BME280;60035;52.122;5.406;2023-03-23T14:15:41;100524.06;;;13.99;82.98
72157;BME280;60035;52.122;5.406;2023-03-23T14:18:13;100530.78;;;13.67;86.19
72157;BME280;60035;52.122;5.406;2023-03-23T14:20:39;100526.16;;;13.56;90.05
72157;BME280;60035;52.122;5.406;2023-03-23T14:23:05;100539.88;;;13.38;92.07
72157;BME280;60035;52.122;5.406;2023-03-23T14:25:31;100536.25;;;13.42;95.58
72157;BME280;60035;52.122;5.406;2023-03-23T14:27:59;100527.88;;;14.10;97.34
72157;BME280;60035;52.122;5.406;2023-03-23T14:30:27;100533.34;;;14.21;94.51
72157;BME280;60035;52.122;5.406;2023-03-23T14:33:06;100531.44;;;14.07;94.31
72157;BME280;60035;52.122;5.406;2023-03-23T14:35:35;100514.31;;;14.06;95.17
72157;BME280;60035;52.122;5.406;2023-03-23T14:38:03;100501.19;;;14.28;95.90
72157;BME280;60035;52.122;5.406;2023-03-23T14:40:29;100506.19;;;14.49;96.50
72157;BME280;60035;52.122;5.406;2023-03-23T14:42:56;100485.75;;;14.95;94.44
72157;BME280;60035;52.122;5.406;2023-03-23T14:45:23;100470.75;;;15.34;87.46